createdAt,value
2018-07-28T00:02:15.564Z,16.63
2018-07-28T00:04:43.975Z,13.20
2018-07-28T00:07:12.407Z,13.47
2018-07-28T00:09:40.856Z,12.73
2018-07-28T00:12:09.373Z,12.83
2018-07-28T00:14:37.797Z,13.70
2018-07-28T00:17:06.289Z,13.90
2018-07-28T00:19:34.756Z,14.17
2018-07-28T00:22:03.241Z,12.07
2018-07-28T00:24:31.724Z,13.20
2018-07-28T00:27:00.311Z,12.60
2018-07-28T00:29:28.772Z,14.53
2018-07-28T00:31:57.325Z,13.53
2018-07-28T00:34:25.804Z,13.13
2018-07-28T00:36:54.389Z,14.23
2018-07-28T00:39:22.847Z,13.70
2018-07-28T00:41:51.380Z,12.90
2018-07-28T00:44:19.860Z,12.80
2018-07-28T00:46:48.316Z,13.17
2018-07-28T00:49:16.721Z,13.67
2018-07-28T00:51:45.173Z,14.10
2018-07-28T00:54:13.655Z,14.20
2018-07-28T00:56:42.889Z,14.87
2018-07-28T00:59:11.283Z,12.80
2018-07-28T01:01:39.804Z,14.30
2018-07-28T01:04:08.339Z,12.63
2018-07-28T01:06:36.532Z,14.30
2018-07-28T01:09:08.095Z,14.13
2018-07-28T01:11:36.682Z,12.77
2018-07-28T01:14:06.698Z,14.90
2018-07-28T01:16:35.660Z,13.77
2018-07-28T01:19:04.209Z,12.63
2018-07-28T01:21:32.720Z,14.20
2018-07-28T01:24:01.150Z,12.83
2018-07-28T01:26:29.666Z,12.97
2018-07-28T01:29:04.235Z,13.50
2018-07-28T01:31:32.655Z,20.97
2018-07-28T01:34:01.381Z,12.80
2018-07-28T01:36:29.819Z,14.90
2018-07-28T01:38:58.445Z,14.03
2018-07-28T01:41:27.047Z,12.70
2018-07-28T01:43:55.497Z,13.27
2018-07-28T01:46:23.887Z,14.27
2018-07-28T01:48:52.333Z,14.37
2018-07-28T01:51:20.768Z,13.37
2018-07-28T01:53:49.164Z,13.57
2018-07-28T01:56:17.735Z,12.87
2018-07-28T01:58:46.404Z,12.70
2018-07-28T02:01:14.969Z,12.90
2018-07-28T02:03:43.456Z,13.00
2018-07-28T02:06:11.814Z,12.17
2018-07-28T02:08:40.335Z,12.33
2018-07-28T02:11:08.788Z,14.00
2018-07-28T02:13:36.912Z,13.17
2018-07-28T02:16:06.405Z,12.53
2018-07-28T02:18:34.915Z,12.30
2018-07-28T02:21:03.383Z,12.57
2018-07-28T02:23:32.015Z,12.50
2018-07-28T02:26:00.596Z,12.27
2018-07-28T02:28:29.064Z,13.13
2018-07-28T02:30:57.472Z,13.83
2018-07-28T02:33:25.912Z,13.30
2018-07-28T02:35:54.735Z,14.07
2018-07-28T02:38:23.134Z,13.47
2018-07-28T02:40:51.549Z,14.37
2018-07-28T02:43:19.964Z,13.77
2018-07-28T02:45:48.176Z,14.07
2018-07-28T02:48:16.761Z,12.93
2018-07-28T02:50:45.144Z,13.50
2018-07-28T02:53:13.559Z,13.93
2018-07-28T02:55:42.091Z,14.47
2018-07-28T02:58:10.500Z,15.33
2018-07-28T03:00:39.037Z,14.13
2018-07-28T03:03:07.450Z,13.70
2018-07-28T03:05:35.820Z,15.13
2018-07-28T03:08:04.387Z,14.03
2018-07-28T03:10:33.063Z,13.10
2018-07-28T03:13:01.558Z,12.90
2018-07-28T03:15:36.797Z,13.53
2018-07-28T03:18:07.577Z,13.63
2018-07-28T03:20:36.049Z,15.43
2018-07-28T03:23:05.064Z,13.73
2018-07-28T03:25:33.495Z,13.83
2018-07-28T03:28:01.920Z,12.73
2018-07-28T03:30:30.392Z,13.67
2018-07-28T03:32:58.920Z,15.27
2018-07-28T03:35:28.256Z,14.50
2018-07-28T03:37:56.956Z,13.63
2018-07-28T03:40:25.510Z,13.67
2018-07-28T03:42:54.122Z,14.33
2018-07-28T03:45:22.735Z,18.97
2018-07-28T03:47:51.178Z,14.17
2018-07-28T03:50:19.624Z,13.97
2018-07-28T03:52:48.282Z,14.20
2018-07-28T03:55:16.681Z,14.23
2018-07-28T03:57:45.187Z,14.23
2018-07-28T04:00:13.612Z,15.13
2018-07-28T04:02:42.028Z,14.30
2018-07-28T04:05:11.686Z,14.60
2018-07-28T04:07:40.726Z,13.33
2018-07-28T04:10:09.916Z,14.17
2018-07-28T04:12:39.201Z,15.93
2018-07-28T04:15:10.003Z,14.73
2018-07-28T04:17:49.498Z,15.17
2018-07-28T04:20:17.960Z,14.97
2018-07-28T04:22:46.394Z,14.53
2018-07-28T04:25:14.899Z,14.30
2018-07-28T04:27:43.381Z,13.57
2018-07-28T04:30:11.897Z,14.63
2018-07-28T04:32:40.472Z,14.10
2018-07-28T04:35:09.102Z,13.83
2018-07-28T04:37:38.678Z,14.67
2018-07-28T04:40:08.297Z,13.37
2018-07-28T04:42:36.857Z,13.90
2018-07-28T04:45:06.032Z,15.00
2018-07-28T04:47:34.228Z,14.10
2018-07-28T04:50:02.788Z,14.00
2018-07-28T04:52:31.225Z,13.33
2018-07-28T04:55:00.030Z,12.80
2018-07-28T04:57:28.474Z,13.90
2018-07-28T04:59:57.136Z,13.93
2018-07-28T05:02:26.909Z,12.77
2018-07-28T05:04:56.130Z,14.67
2018-07-28T05:07:25.211Z,15.33
2018-07-28T05:09:54.049Z,14.20
2018-07-28T05:12:22.696Z,14.80
2018-07-28T05:14:51.161Z,14.73
2018-07-28T05:17:19.685Z,14.57
2018-07-28T05:19:48.139Z,15.47
2018-07-28T05:22:16.609Z,14.67
2018-07-28T05:24:45.395Z,14.63
2018-07-28T05:27:14.055Z,14.37
2018-07-28T05:29:42.619Z,13.57
2018-07-28T05:32:11.089Z,14.00
2018-07-28T05:34:39.518Z,13.23
2018-07-28T05:37:08.013Z,14.27
2018-07-28T05:39:36.420Z,13.60
2018-07-28T05:42:04.890Z,13.33
2018-07-28T05:44:33.459Z,12.57
2018-07-28T05:47:02.039Z,13.80
2018-07-28T05:49:30.523Z,12.67
2018-07-28T05:51:58.992Z,11.33
2018-07-28T05:54:27.589Z,12.20
2018-07-28T05:56:56.067Z,12.30
2018-07-28T05:59:24.721Z,12.20
2018-07-28T06:01:53.529Z,12.73
2018-07-28T06:04:22.221Z,12.83
2018-07-28T06:06:50.924Z,14.63
2018-07-28T06:09:19.515Z,12.80
2018-07-28T06:11:48.069Z,13.23
2018-07-28T06:14:16.628Z,14.10
2018-07-28T06:16:45.093Z,13.47
2018-07-28T06:19:13.601Z,12.57
2018-07-28T06:21:42.162Z,13.53
2018-07-28T06:24:10.808Z,18.07
2018-07-28T06:26:39.276Z,15.07
2018-07-28T06:29:07.756Z,14.43
2018-07-28T06:31:35.953Z,14.03
2018-07-28T06:34:04.456Z,13.93
2018-07-28T06:36:33.207Z,14.80
2018-07-28T06:39:01.389Z,12.00
2018-07-28T06:41:29.999Z,13.67
2018-07-28T06:43:58.460Z,13.00
2018-07-28T06:46:26.917Z,12.63
2018-07-28T06:48:56.159Z,13.03
2018-07-28T06:51:24.605Z,13.70
2018-07-28T06:53:53.012Z,12.47
2018-07-28T06:56:21.532Z,11.13
2018-07-28T06:58:50.091Z,13.97
2018-07-28T07:01:18.821Z,13.37
2018-07-28T07:03:47.374Z,13.07
2018-07-28T07:06:15.906Z,11.17
2018-07-28T07:08:44.341Z,12.63
2018-07-28T07:11:12.879Z,12.67
2018-07-28T07:13:41.784Z,11.20
2018-07-28T07:16:10.414Z,11.63
2018-07-28T07:18:45.342Z,11.67
2018-07-28T07:21:13.877Z,11.67
2018-07-28T07:23:42.305Z,11.33
2018-07-28T07:26:10.780Z,10.80
2018-07-28T07:28:39.270Z,12.20
2018-07-28T07:31:07.813Z,10.93
2018-07-28T07:33:36.455Z,11.10
2018-07-28T07:36:05.089Z,11.37
2018-07-28T07:38:34.551Z,11.07
2018-07-28T07:41:03.090Z,11.13
2018-07-28T07:43:31.556Z,11.10
2018-07-28T07:46:00.014Z,10.27
2018-07-28T07:48:28.478Z,9.37
2018-07-28T07:50:56.968Z,10.60
2018-07-28T07:53:25.521Z,11.90
2018-07-28T07:55:53.994Z,9.40
2018-07-28T07:58:22.642Z,10.53
2018-07-28T08:00:51.116Z,10.17
2018-07-28T08:03:19.567Z,10.40
2018-07-28T08:05:48.073Z,9.47
2018-07-28T08:08:16.566Z,9.17
2018-07-28T08:10:45.329Z,9.17
2018-07-28T08:13:14.086Z,8.73
2018-07-28T08:15:42.591Z,9.40
2018-07-28T08:18:11.108Z,9.43
2018-07-28T08:20:39.741Z,9.63
2018-07-28T08:23:08.669Z,9.17
2018-07-28T08:25:37.214Z,8.70
2018-07-28T08:28:05.677Z,8.33
2018-07-28T08:30:34.257Z,11.67
2018-07-28T08:33:02.985Z,8.67
2018-07-28T08:35:31.567Z,9.07
2018-07-28T08:38:00.156Z,8.77
2018-07-28T08:40:28.775Z,9.20
2018-07-28T08:42:57.340Z,11.43
2018-07-28T08:45:25.731Z,9.03
2018-07-28T08:47:54.266Z,8.30
2018-07-28T08:50:22.698Z,8.23
2018-07-28T08:52:51.378Z,8.43
2018-07-28T08:55:19.949Z,7.77
2018-07-28T08:57:48.675Z,8.07
2018-07-28T09:00:17.138Z,7.87
2018-07-28T09:02:45.582Z,7.67
2018-07-28T09:05:14.112Z,8.03
2018-07-28T09:07:42.689Z,7.93
2018-07-28T09:10:11.209Z,10.03
2018-07-28T09:12:39.734Z,7.80
2018-07-28T09:15:09.222Z,7.53
2018-07-28T09:17:37.651Z,7.60
2018-07-28T09:20:06.704Z,7.83
2018-07-28T09:22:35.237Z,7.23
2018-07-28T09:25:03.815Z,6.20
2018-07-28T09:27:32.660Z,6.57
2018-07-28T09:30:01.097Z,6.87
2018-07-28T09:32:29.569Z,9.70
2018-07-28T09:34:58.185Z,7.00
2018-07-28T09:37:26.812Z,6.37
2018-07-28T09:39:55.884Z,5.75
2018-07-28T09:42:24.569Z,6.63
2018-07-28T09:44:53.391Z,6.23
2018-07-28T09:47:21.942Z,6.30
2018-07-28T09:49:50.601Z,5.30
2018-07-28T09:52:19.184Z,8.45
2018-07-28T09:54:47.966Z,6.78
2018-07-28T09:57:16.454Z,6.20
2018-07-28T09:59:45.028Z,11.57
2018-07-28T10:02:14.243Z,6.65
2018-07-28T10:04:42.964Z,7.12
2018-07-28T10:07:11.401Z,6.97
2018-07-28T10:09:39.856Z,6.60
2018-07-28T10:12:08.398Z,6.22
2018-07-28T10:14:36.882Z,7.42
2018-07-28T10:17:05.426Z,6.08
2018-07-28T10:19:34.110Z,5.90
2018-07-28T10:22:02.765Z,5.90
2018-07-28T10:24:31.601Z,8.68
2018-07-28T10:27:00.189Z,6.78
2018-07-28T10:29:29.059Z,7.50
2018-07-28T10:31:57.544Z,6.12
2018-07-28T10:34:26.106Z,8.43
2018-07-28T10:36:54.781Z,6.40
2018-07-28T10:39:23.328Z,6.17
2018-07-28T10:41:51.766Z,5.92
2018-07-28T10:44:20.313Z,7.12
2018-07-28T10:46:48.824Z,7.97
2018-07-28T10:49:17.274Z,6.10
2018-07-28T10:51:45.860Z,5.67
2018-07-28T10:54:14.374Z,7.45
2018-07-28T10:56:42.922Z,5.83
2018-07-28T10:59:11.101Z,7.87
2018-07-28T11:01:39.674Z,7.70
2018-07-28T11:04:08.303Z,6.95
2018-07-28T11:06:37.050Z,6.15
2018-07-28T11:09:08.417Z,6.05
2018-07-28T11:11:37.431Z,6.08
2018-07-28T11:14:06.412Z,6.50
2018-07-28T11:16:34.969Z,5.85
2018-07-28T11:19:03.809Z,7.60
2018-07-28T11:21:32.335Z,5.72
2018-07-28T11:24:02.093Z,6.30
2018-07-28T11:26:30.638Z,6.33
2018-07-28T11:28:58.792Z,5.85
2018-07-28T11:31:38.617Z,5.95
2018-07-28T11:34:18.244Z,5.35
2018-07-28T11:36:58.136Z,5.87
2018-07-28T11:39:37.780Z,5.70
2018-07-28T11:42:17.579Z,6.20
2018-07-28T11:45:06.125Z,5.22
2018-07-28T11:47:34.703Z,5.55
2018-07-28T11:50:03.219Z,5.75
2018-07-28T11:52:31.616Z,5.05
2018-07-28T11:55:00.191Z,6.12
2018-07-28T11:57:28.788Z,5.00
2018-07-28T11:59:57.381Z,6.37
2018-07-28T12:02:25.886Z,6.15
2018-07-28T12:04:54.421Z,7.62
2018-07-28T12:07:22.854Z,7.12
2018-07-28T12:09:51.419Z,5.22
2018-07-28T12:12:20.191Z,6.33
2018-07-28T12:14:49.814Z,4.85
2018-07-28T12:17:18.560Z,6.75
2018-07-28T12:19:47.074Z,4.85
2018-07-28T12:22:15.599Z,6.33
2018-07-28T12:24:44.036Z,5.97
2018-07-28T12:27:12.491Z,7.40
2018-07-28T12:29:40.906Z,5.30
2018-07-28T12:32:09.654Z,6.00
2018-07-28T12:34:38.148Z,6.30
2018-07-28T12:37:06.718Z,7.87
2018-07-28T12:39:35.263Z,8.67
2018-07-28T12:42:03.753Z,8.07
2018-07-28T12:44:32.529Z,6.47
2018-07-28T12:47:00.974Z,10.60
2018-07-28T12:49:29.077Z,7.23
2018-07-28T12:51:57.660Z,9.93
2018-07-28T12:54:26.240Z,10.27
2018-07-28T12:56:54.905Z,6.90
2018-07-28T12:59:23.305Z,6.90
2018-07-28T13:01:51.893Z,8.23
2018-07-28T13:04:20.352Z,7.27
2018-07-28T13:06:48.847Z,9.47
2018-07-28T13:09:17.286Z,6.83
2018-07-28T13:11:45.812Z,9.33
2018-07-28T13:14:14.356Z,6.90
2018-07-28T13:16:42.790Z,11.87
2018-07-28T13:19:11.245Z,7.77
2018-07-28T13:21:39.903Z,10.67
2018-07-28T13:24:08.383Z,7.80
2018-07-28T13:26:36.893Z,6.07
2018-07-28T13:29:05.345Z,13.57
2018-07-28T13:31:33.828Z,8.43
2018-07-28T13:34:02.543Z,7.90
2018-07-28T13:36:30.951Z,6.40
2018-07-28T13:38:59.353Z,7.20
2018-07-28T13:41:27.832Z,6.30
2018-07-28T13:43:56.362Z,6.10
2018-07-28T13:46:24.933Z,7.33
2018-07-28T13:48:53.463Z,6.00
2018-07-28T13:51:21.930Z,11.00
2018-07-28T13:53:50.382Z,8.23
2018-07-28T13:56:18.878Z,5.57
2018-07-28T13:58:47.510Z,10.57
2018-07-28T14:01:15.997Z,6.57
2018-07-28T14:03:44.506Z,7.83
2018-07-28T14:06:13.124Z,8.57
2018-07-28T14:08:41.524Z,8.93
2018-07-28T14:11:10.313Z,8.37
2018-07-28T14:13:38.920Z,6.87
2018-07-28T14:16:07.480Z,7.50
2018-07-28T14:18:36.034Z,7.70
2018-07-28T14:21:04.693Z,9.33
2018-07-28T14:23:33.255Z,7.57
2018-07-28T14:26:01.673Z,11.43
2018-07-28T14:28:30.316Z,9.53
2018-07-28T14:30:59.039Z,10.93
2018-07-28T14:33:27.543Z,11.60
2018-07-28T14:35:56.024Z,9.77
2018-07-28T14:38:24.737Z,13.77
2018-07-28T14:40:53.248Z,13.77
2018-07-28T14:43:21.659Z,9.10
2018-07-28T14:45:50.235Z,17.50
2018-07-28T14:48:18.838Z,14.03
2018-07-28T14:50:47.391Z,10.87
2018-07-28T14:53:15.961Z,7.70
2018-07-28T14:55:44.618Z,8.27
2018-07-28T14:58:13.056Z,9.67
2018-07-28T15:00:41.943Z,10.23
2018-07-28T15:03:10.369Z,14.50
2018-07-28T15:05:39.147Z,10.47
2018-07-28T15:08:07.797Z,11.10
2018-07-28T15:10:36.334Z,10.30
2018-07-28T15:13:04.768Z,10.70
2018-07-28T15:15:33.241Z,11.07
2018-07-28T15:18:01.908Z,15.57
2018-07-28T15:20:30.473Z,14.03
2018-07-28T15:22:58.577Z,11.97
2018-07-28T15:25:27.048Z,10.90
2018-07-28T15:27:55.616Z,11.57
2018-07-28T15:30:24.237Z,12.27
2018-07-28T15:32:52.946Z,11.33
2018-07-28T15:35:21.649Z,11.03
2018-07-28T15:37:50.470Z,10.57
2018-07-28T15:40:18.910Z,11.90
2018-07-28T15:42:47.549Z,9.93
2018-07-28T15:45:16.069Z,10.03
2018-07-28T15:47:44.594Z,9.20
2018-07-28T15:50:13.124Z,9.90
2018-07-28T15:52:42.019Z,13.30
2018-07-28T15:55:10.515Z,9.67
2018-07-28T15:57:39.667Z,10.00
2018-07-28T16:00:08.367Z,10.53
2018-07-28T16:02:36.849Z,11.00
2018-07-28T16:05:05.495Z,12.90
2018-07-28T16:07:34.149Z,10.60
2018-07-28T16:10:02.381Z,11.27
2018-07-28T16:12:30.903Z,9.87
2018-07-28T16:14:59.250Z,10.50
2018-07-28T16:17:27.877Z,11.57
2018-07-28T16:19:56.288Z,12.23
2018-07-28T16:22:24.789Z,11.50
2018-07-28T16:24:53.185Z,11.63
2018-07-28T16:27:21.729Z,12.10
2018-07-28T16:29:50.296Z,11.03
2018-07-28T16:32:18.957Z,10.97
2018-07-28T16:34:47.447Z,13.30
2018-07-28T16:37:16.010Z,10.43
2018-07-28T16:39:44.516Z,8.60
2018-07-28T16:42:13.103Z,8.57
2018-07-28T16:44:41.931Z,9.73
2018-07-28T16:47:10.675Z,8.20
2018-07-28T16:49:39.178Z,12.07
2018-07-28T16:52:07.766Z,7.53
2018-07-28T16:54:36.495Z,8.23
2018-07-28T16:57:05.165Z,5.60
2018-07-28T16:59:33.634Z,7.03
2018-07-28T17:02:02.141Z,6.10
2018-07-28T17:04:30.613Z,5.90
2018-07-28T17:06:59.051Z,10.00
2018-07-28T17:09:27.559Z,5.77
2018-07-28T17:11:56.016Z,6.80
2018-07-28T17:14:24.552Z,5.83
2018-07-28T17:16:53.284Z,7.07
2018-07-28T17:19:21.794Z,7.97
2018-07-28T17:21:50.335Z,9.17
2018-07-28T17:24:18.870Z,9.30
2018-07-28T17:26:47.405Z,7.13
2018-07-28T17:29:15.981Z,10.23
2018-07-28T17:31:44.637Z,6.83
2018-07-28T17:34:13.155Z,6.13
2018-07-28T17:36:41.638Z,6.80
2018-07-28T17:39:11.033Z,8.30
2018-07-28T17:41:40.092Z,7.57
2018-07-28T17:44:08.609Z,10.07
2018-07-28T17:46:37.153Z,6.47
2018-07-28T17:49:05.668Z,6.83
2018-07-28T17:51:34.328Z,7.70
2018-07-28T17:54:02.840Z,7.57
2018-07-28T17:56:31.234Z,6.87
2018-07-28T17:58:59.727Z,6.80
2018-07-28T18:01:28.358Z,7.73
2018-07-28T18:03:56.926Z,6.97
2018-07-28T18:06:25.407Z,6.97
2018-07-28T18:08:53.905Z,9.67
2018-07-28T18:11:22.373Z,11.93
2018-07-28T18:13:50.900Z,6.60
2018-07-28T18:16:19.490Z,6.83
2018-07-28T18:18:48.010Z,8.27
2018-07-28T18:21:16.160Z,9.77
2018-07-28T18:23:44.698Z,7.27
2018-07-28T18:26:13.142Z,7.80
2018-07-28T18:28:41.786Z,8.27
2018-07-28T18:31:10.241Z,8.23
2018-07-28T18:33:38.804Z,8.30
2018-07-28T18:36:07.257Z,9.50
2018-07-28T18:38:35.682Z,7.47
2018-07-28T18:41:03.923Z,8.10
2018-07-28T18:43:32.497Z,8.03
2018-07-28T18:46:01.016Z,6.90
2018-07-28T18:48:29.564Z,7.23
2018-07-28T18:50:57.960Z,7.23
2018-07-28T18:53:26.529Z,7.70
2018-07-28T18:55:55.116Z,8.43
2018-07-28T18:58:23.908Z,8.33
2018-07-28T19:00:52.824Z,8.33
2018-07-28T19:03:21.314Z,9.93
2018-07-28T19:05:49.811Z,9.30
2018-07-28T19:08:18.261Z,7.33
2018-07-28T19:10:46.801Z,6.80
2018-07-28T19:13:20.669Z,7.43
2018-07-28T19:15:49.206Z,8.03
2018-07-28T19:18:23.359Z,7.80
2018-07-28T19:20:51.842Z,7.93
2018-07-28T19:23:25.769Z,8.17
2018-07-28T19:25:54.433Z,10.57
2018-07-28T19:29:26.100Z,7.77
2018-07-28T19:31:54.586Z,13.07
2018-07-28T19:34:23.040Z,12.33
2018-07-28T19:36:56.824Z,7.60
2018-07-28T19:39:25.348Z,6.90
2018-07-28T19:41:59.234Z,7.77
2018-07-28T19:44:27.717Z,7.73
2018-07-28T19:46:56.235Z,8.50
2018-07-28T19:49:24.747Z,8.67
2018-07-28T19:51:53.263Z,7.70
2018-07-28T19:54:21.697Z,11.27
2018-07-28T19:56:50.157Z,9.23
2018-07-28T19:59:18.688Z,8.67
2018-07-28T20:01:53.653Z,8.27
2018-07-28T20:04:22.111Z,8.37
2018-07-28T20:06:50.439Z,8.80
2018-07-28T20:09:18.971Z,8.43
2018-07-28T20:11:47.494Z,8.53
2018-07-28T20:14:15.938Z,7.77
2018-07-28T20:16:44.552Z,7.23
2018-07-28T20:19:13.056Z,7.70
2018-07-28T20:21:41.574Z,13.57
2018-07-28T20:24:10.197Z,6.73
2018-07-28T20:26:38.972Z,7.30
2018-07-28T20:29:07.512Z,7.37
2018-07-28T20:31:36.121Z,6.83
2018-07-28T20:34:04.586Z,7.73
2018-07-28T20:36:33.050Z,7.47
2018-07-28T20:39:01.537Z,7.40
2018-07-28T20:41:30.142Z,7.93
2018-07-28T20:43:58.321Z,7.03
2018-07-28T20:46:26.739Z,7.57
2018-07-28T20:48:55.190Z,8.40
2018-07-28T20:51:23.676Z,8.30
2018-07-28T20:53:51.866Z,8.87
2018-07-28T20:56:20.342Z,9.20
2018-07-28T20:58:48.782Z,8.30
2018-07-28T21:01:17.279Z,7.83
2018-07-28T21:03:46.008Z,7.73
2018-07-28T21:06:15.451Z,7.23
2018-07-28T21:08:44.260Z,8.00
2018-07-28T21:11:12.708Z,7.43
2018-07-28T21:13:41.320Z,7.93
2018-07-28T21:16:09.736Z,8.10
2018-07-28T21:18:38.251Z,7.53
2018-07-28T21:21:07.412Z,8.60
2018-07-28T21:23:36.014Z,8.63
2018-07-28T21:26:04.705Z,9.13
2018-07-28T21:28:33.272Z,8.20
2018-07-28T21:31:01.841Z,8.60
2018-07-28T21:33:30.280Z,8.33
2018-07-28T21:35:58.917Z,8.63
2018-07-28T21:38:27.460Z,11.13
2018-07-28T21:40:55.710Z,8.87
2018-07-28T21:43:24.192Z,10.00
2018-07-28T21:45:52.833Z,8.77
2018-07-28T21:48:21.335Z,9.33
2018-07-28T21:50:49.964Z,8.80
2018-07-28T21:53:18.577Z,8.50
2018-07-28T21:55:47.122Z,8.47
2018-07-28T21:58:15.795Z,9.70
2018-07-28T22:00:50.773Z,10.20
2018-07-28T22:03:19.248Z,9.13
2018-07-28T22:05:47.721Z,12.87
2018-07-28T22:08:16.286Z,9.00
2018-07-28T22:10:44.771Z,10.87
2018-07-28T22:13:13.396Z,10.87
2018-07-28T22:15:41.915Z,9.60
2018-07-28T22:18:10.407Z,12.27
2018-07-28T22:20:38.884Z,9.27
2018-07-28T22:23:07.483Z,9.70
2018-07-28T22:25:36.039Z,9.23
2018-07-28T22:28:04.597Z,11.60
2018-07-28T22:30:33.190Z,9.33
2018-07-28T22:33:01.718Z,9.30
2018-07-28T22:35:30.372Z,10.33
2018-07-28T22:37:59.159Z,10.47
2018-07-28T22:40:27.600Z,10.10
2018-07-28T22:42:56.203Z,9.60
2018-07-28T22:45:24.736Z,9.43
2018-07-28T22:47:52.848Z,10.37
2018-07-28T22:50:21.545Z,11.47
2018-07-28T22:52:50.077Z,9.87
2018-07-28T22:55:18.720Z,10.57
2018-07-28T22:57:47.137Z,9.23
2018-07-28T23:00:15.714Z,10.60
2018-07-28T23:02:44.145Z,10.00
2018-07-28T23:05:12.718Z,9.33
2018-07-28T23:07:41.237Z,9.63
2018-07-28T23:10:10.020Z,10.33
2018-07-28T23:12:38.644Z,10.23
2018-07-28T23:15:07.169Z,10.23
2018-07-28T23:17:35.721Z,11.83
2018-07-28T23:20:04.693Z,10.47
2018-07-28T23:22:33.100Z,14.10
2018-07-28T23:25:01.586Z,10.27
2018-07-28T23:27:30.220Z,10.83
2018-07-28T23:29:58.658Z,10.03
2018-07-28T23:32:27.321Z,10.47
2018-07-28T23:34:56.871Z,9.97
2018-07-28T23:37:25.414Z,10.43
2018-07-28T23:39:53.987Z,11.13
2018-07-28T23:42:22.511Z,10.77
2018-07-28T23:44:51.116Z,9.97
2018-07-28T23:47:19.621Z,10.60
2018-07-28T23:49:48.220Z,11.37
2018-07-28T23:52:16.882Z,10.60
2018-07-28T23:54:45.448Z,9.80
2018-07-28T23:57:14.028Z,10.57
2018-07-28T23:59:42.767Z,9.57
